sensor_id;sensor_type;location;lat;lon;timestamp;P1;durP1;ratioP1;P2;durP2;ratioP2
19804;SDS011;10062;51.052;13.756;2022-11-15T00:00:27;55.73;;;29.03;;
19804;SDS011;10062;51.052;13.756;2022-11-15T00:03:19;52.57;;;26.67;;
19804;SDS011;10062;51.052;13.756;2022-11-15T00:06:11;54.90;;;30.47;;
19804;SDS011;10062;51.052;13.756;2022-11-15T00:09:02;58.77;;;30.83;;
19804;SDS011;10062;51.052;13.756;2022-11-15T00:11:53;61.33;;;32.13;;
19804;SDS011;10062;51.052;13.756;2022-11-15T00:14:43;60.17;;;32.30;;
19804;SDS011;10062;51.052;13.756;2022-11-15T00:17:34;48.40;;;22.83;;
19804;SDS011;10062;51.052;13.756;2022-11-15T00:20:25;43.77;;;21.53;;
19804;SDS011;10062;51.052;13.756;2022-11-15T00:23:16;47.13;;;22.03;;
19804;SDS011;10062;51.052;13.756;2022-11-15T00:26:07;60.13;;;32.27;;
19804;SDS011;10062;51.052;13.756;2022-11-15T00:29:00;63.00;;;33.87;;
19804;SDS011;10062;51.052;13.756;2022-11-15T00:31:50;58.40;;;31.10;;
19804;SDS011;10062;51.052;13.756;2022-11-15T00:34:41;51.37;;;22.73;;
19804;SDS011;10062;51.052;13.756;2022-11-15T00:37:33;60.57;;;29.67;;
19804;SDS011;10062;51.052;13.756;2022-11-15T00:40:23;45.17;;;22.97;;
19804;SDS011;10062;51.052;13.756;2022-11-15T00:43:14;61.37;;;34.37;;
19804;SDS011;10062;51.052;13.756;2022-11-15T00:46:05;68.27;;;34.93;;
19804;SDS011;10062;51.052;13.756;2022-11-15T00:48:57;52.33;;;22.43;;
19804;SDS011;10062;51.052;13.756;2022-11-15T00:51:48;64.90;;;34.00;;
19804;SDS011;10062;51.052;13.756;2022-11-15T00:54:40;66.07;;;33.60;;
19804;SDS011;10062;51.052;13.756;2022-11-15T00:57:30;61.53;;;34.30;;
19804;SDS011;10062;51.052;13.756;2022-11-15T01:00:21;64.27;;;34.57;;
19804;SDS011;10062;51.052;13.756;2022-11-15T01:03:11;70.60;;;35.77;;
19804;SDS011;10062;51.052;13.756;2022-11-15T01:06:02;68.93;;;34.77;;
19804;SDS011;10062;51.052;13.756;2022-11-15T01:08:52;62.20;;;34.30;;
19804;SDS011;10062;51.052;13.756;2022-11-15T01:11:44;62.77;;;34.33;;
19804;SDS011;10062;51.052;13.756;2022-11-15T01:14:34;66.73;;;32.97;;
19804;SDS011;10062;51.052;13.756;2022-11-15T01:17:24;70.40;;;34.10;;
19804;SDS011;10062;51.052;13.756;2022-11-15T01:20:15;70.03;;;36.70;;
19804;SDS011;10062;51.052;13.756;2022-11-15T01:23:05;67.40;;;34.97;;
19804;SDS011;10062;51.052;13.756;2022-11-15T01:25:58;66.17;;;35.23;;
19804;SDS011;10062;51.052;13.756;2022-11-15T01:28:50;66.90;;;33.53;;
19804;SDS011;10062;51.052;13.756;2022-11-15T01:31:40;72.03;;;35.73;;
19804;SDS011;10062;51.052;13.756;2022-11-15T01:34:31;67.83;;;33.40;;
19804;SDS011;10062;51.052;13.756;2022-11-15T01:37:21;71.10;;;36.47;;
19804;SDS011;10062;51.052;13.756;2022-11-15T01:40:12;69.07;;;35.00;;
19804;SDS011;10062;51.052;13.756;2022-11-15T01:46:13;65.23;;;33.43;;
19804;SDS011;10062;51.052;13.756;2022-11-15T01:49:14;67.67;;;35.73;;
19804;SDS011;10062;51.052;13.756;2022-11-15T01:52:09;67.87;;;34.57;;
19804;SDS011;10062;51.052;13.756;2022-11-15T01:55:03;62.10;;;31.53;;
19804;SDS011;10062;51.052;13.756;2022-11-15T01:57:58;62.50;;;31.77;;
19804;SDS011;10062;51.052;13.756;2022-11-15T02:00:51;68.17;;;36.87;;
19804;SDS011;10062;51.052;13.756;2022-11-15T02:03:44;66.30;;;33.97;;
19804;SDS011;10062;51.052;13.756;2022-11-15T02:06:40;70.43;;;35.20;;
19804;SDS011;10062;51.052;13.756;2022-11-15T02:09:32;65.67;;;34.03;;
19804;SDS011;10062;51.052;13.756;2022-11-15T02:12:22;71.97;;;34.77;;
19804;SDS011;10062;51.052;13.756;2022-11-15T02:15:13;68.70;;;34.43;;
19804;SDS011;10062;51.052;13.756;2022-11-15T02:18:07;65.90;;;33.50;;
19804;SDS011;10062;51.052;13.756;2022-11-15T02:21:08;66.43;;;33.90;;
19804;SDS011;10062;51.052;13.756;2022-11-15T02:24:22;66.23;;;35.00;;
19804;SDS011;10062;51.052;13.756;2022-11-15T02:27:47;63.47;;;31.37;;
19804;SDS011;10062;51.052;13.756;2022-11-15T02:30:54;61.93;;;33.67;;
19804;SDS011;10062;51.052;13.756;2022-11-15T02:33:53;38.83;;;19.80;;
19804;SDS011;10062;51.052;13.756;2022-11-15T02:36:49;57.73;;;27.13;;
19804;SDS011;10062;51.052;13.756;2022-11-15T02:39:49;66.80;;;33.00;;
19804;SDS011;10062;51.052;13.756;2022-11-15T02:42:41;63.93;;;31.80;;
19804;SDS011;10062;51.052;13.756;2022-11-15T02:45:58;59.50;;;30.60;;
19804;SDS011;10062;51.052;13.756;2022-11-15T02:48:55;62.20;;;31.33;;
19804;SDS011;10062;51.052;13.756;2022-11-15T02:51:46;60.83;;;32.13;;
19804;SDS011;10062;51.052;13.756;2022-11-15T02:54:39;61.53;;;32.37;;
19804;SDS011;10062;51.052;13.756;2022-11-15T02:57:32;65.50;;;31.43;;
19804;SDS011;10062;51.052;13.756;2022-11-15T03:00:32;61.27;;;31.13;;
19804;SDS011;10062;51.052;13.756;2022-11-15T03:03:35;60.30;;;30.80;;
19804;SDS011;10062;51.052;13.756;2022-11-15T03:06:37;68.57;;;32.27;;
19804;SDS011;10062;51.052;13.756;2022-11-15T03:09:33;68.43;;;34.30;;
19804;SDS011;10062;51.052;13.756;2022-11-15T03:12:28;65.10;;;31.83;;
19804;SDS011;10062;51.052;13.756;2022-11-15T03:15:26;71.63;;;33.73;;
19804;SDS011;10062;51.052;13.756;2022-11-15T03:18:21;64.70;;;31.00;;
19804;SDS011;10062;51.052;13.756;2022-11-15T03:21:19;65.27;;;31.70;;
19804;SDS011;10062;51.052;13.756;2022-11-15T03:24:11;60.33;;;32.97;;
19804;SDS011;10062;51.052;13.756;2022-11-15T03:27:03;65.93;;;30.80;;
19804;SDS011;10062;51.052;13.756;2022-11-15T03:29:57;65.90;;;31.73;;
19804;SDS011;10062;51.052;13.756;2022-11-15T03:32:51;69.40;;;33.43;;
19804;SDS011;10062;51.052;13.756;2022-11-15T03:35:44;67.20;;;31.90;;
19804;SDS011;10062;51.052;13.756;2022-11-15T03:38:38;67.93;;;31.70;;
19804;SDS011;10062;51.052;13.756;2022-11-15T03:41:30;61.37;;;29.73;;
19804;SDS011;10062;51.052;13.756;2022-11-15T03:44:31;60.80;;;29.17;;
19804;SDS011;10062;51.052;13.756;2022-11-15T03:47:27;65.17;;;31.93;;
19804;SDS011;10062;51.052;13.756;2022-11-15T03:50:22;59.83;;;31.10;;
19804;SDS011;10062;51.052;13.756;2022-11-15T03:53:14;68.80;;;31.63;;
19804;SDS011;10062;51.052;13.756;2022-11-15T03:56:06;66.20;;;34.07;;
19804;SDS011;10062;51.052;13.756;2022-11-15T03:58:56;62.93;;;29.90;;
19804;SDS011;10062;51.052;13.756;2022-11-15T04:01:47;67.63;;;30.70;;
19804;SDS011;10062;51.052;13.756;2022-11-15T04:04:37;64.47;;;30.63;;
19804;SDS011;10062;51.052;13.756;2022-11-15T04:07:27;64.53;;;31.97;;
19804;SDS011;10062;51.052;13.756;2022-11-15T04:10:18;58.03;;;30.20;;
19804;SDS011;10062;51.052;13.756;2022-11-15T04:13:10;66.67;;;28.03;;
19804;SDS011;10062;51.052;13.756;2022-11-15T04:16:00;67.53;;;32.07;;
19804;SDS011;10062;51.052;13.756;2022-11-15T04:18:51;64.43;;;31.13;;
19804;SDS011;10062;51.052;13.756;2022-11-15T04:21:55;58.00;;;28.37;;
19804;SDS011;10062;51.052;13.756;2022-11-15T04:25:03;66.17;;;29.83;;
19804;SDS011;10062;51.052;13.756;2022-11-15T04:27:54;60.67;;;31.00;;
19804;SDS011;10062;51.052;13.756;2022-11-15T04:30:45;62.73;;;31.13;;
19804;SDS011;10062;51.052;13.756;2022-11-15T04:33:36;60.70;;;30.40;;
19804;SDS011;10062;51.052;13.756;2022-11-15T04:36:27;56.80;;;28.47;;
19804;SDS011;10062;51.052;13.756;2022-11-15T04:39:35;45.63;;;21.10;;
19804;SDS011;10062;51.052;13.756;2022-11-15T04:42:25;58.87;;;28.40;;
19804;SDS011;10062;51.052;13.756;2022-11-15T04:45:16;64.37;;;30.03;;
19804;SDS011;10062;51.052;13.756;2022-11-15T04:48:07;61.63;;;30.97;;
19804;SDS011;10062;51.052;13.756;2022-11-15T04:50:58;64.27;;;28.83;;
19804;SDS011;10062;51.052;13.756;2022-11-15T04:53:48;59.47;;;29.53;;
19804;SDS011;10062;51.052;13.756;2022-11-15T04:56:38;37.90;;;17.20;;
19804;SDS011;10062;51.052;13.756;2022-11-15T04:59:29;57.80;;;28.17;;
19804;SDS011;10062;51.052;13.756;2022-11-15T05:02:19;56.70;;;28.00;;
19804;SDS011;10062;51.052;13.756;2022-11-15T05:05:11;68.37;;;31.53;;
19804;SDS011;10062;51.052;13.756;2022-11-15T05:08:01;66.53;;;31.43;;
19804;SDS011;10062;51.052;13.756;2022-11-15T05:10:52;65.77;;;32.07;;
19804;SDS011;10062;51.052;13.756;2022-11-15T05:13:42;62.83;;;30.43;;
19804;SDS011;10062;51.052;13.756;2022-11-15T05:16:33;63.80;;;31.80;;
19804;SDS011;10062;51.052;13.756;2022-11-15T05:19:23;53.03;;;25.63;;
19804;SDS011;10062;51.052;13.756;2022-11-15T05:22:15;63.13;;;29.37;;
19804;SDS011;10062;51.052;13.756;2022-11-15T05:25:06;63.53;;;31.70;;
19804;SDS011;10062;51.052;13.756;2022-11-15T05:27:56;60.83;;;30.70;;
19804;SDS011;10062;51.052;13.756;2022-11-15T05:30:47;61.30;;;29.80;;
19804;SDS011;10062;51.052;13.756;2022-11-15T05:33:37;55.87;;;25.97;;
19804;SDS011;10062;51.052;13.756;2022-11-15T05:36:29;39.93;;;20.13;;
19804;SDS011;10062;51.052;13.756;2022-11-15T05:39:26;54.73;;;25.53;;
19804;SDS011;10062;51.052;13.756;2022-11-15T05:42:16;56.67;;;27.47;;
19804;SDS011;10062;51.052;13.756;2022-11-15T05:45:07;54.10;;;27.17;;
19804;SDS011;10062;51.052;13.756;2022-11-15T05:47:59;64.53;;;31.30;;
19804;SDS011;10062;51.052;13.756;2022-11-15T05:50:54;71.53;;;35.40;;
19804;SDS011;10062;51.052;13.756;2022-11-15T05:53:45;59.77;;;28.53;;
19804;SDS011;10062;51.052;13.756;2022-11-15T05:56:38;62.60;;;29.40;;
19804;SDS011;10062;51.052;13.756;2022-11-15T05:59:29;61.67;;;29.40;;
19804;SDS011;10062;51.052;13.756;2022-11-15T06:02:21;47.37;;;26.20;;
19804;SDS011;10062;51.052;13.756;2022-11-15T06:05:11;59.60;;;29.13;;
19804;SDS011;10062;51.052;13.756;2022-11-15T06:08:02;61.57;;;26.90;;
19804;SDS011;10062;51.052;13.756;2022-11-15T06:10:52;55.37;;;27.13;;
19804;SDS011;10062;51.052;13.756;2022-11-15T06:13:44;54.83;;;24.13;;
19804;SDS011;10062;51.052;13.756;2022-11-15T06:16:34;50.37;;;25.00;;
19804;SDS011;10062;51.052;13.756;2022-11-15T06:19:25;63.47;;;27.20;;
19804;SDS011;10062;51.052;13.756;2022-11-15T06:22:15;67.90;;;32.17;;
19804;SDS011;10062;51.052;13.756;2022-11-15T06:25:06;57.43;;;29.77;;
19804;SDS011;10062;51.052;13.756;2022-11-15T06:27:57;74.53;;;31.40;;
19804;SDS011;10062;51.052;13.756;2022-11-15T06:30:49;63.13;;;25.60;;
19804;SDS011;10062;51.052;13.756;2022-11-15T06:33:40;62.77;;;31.97;;
19804;SDS011;10062;51.052;13.756;2022-11-15T06:36:30;54.63;;;28.07;;
19804;SDS011;10062;51.052;13.756;2022-11-15T06:39:20;46.43;;;21.70;;
19804;SDS011;10062;51.052;13.756;2022-11-15T06:42:11;53.63;;;27.87;;
19804;SDS011;10062;51.052;13.756;2022-11-15T06:45:01;58.63;;;29.07;;
19804;SDS011;10062;51.052;13.756;2022-11-15T06:47:53;54.27;;;26.43;;
19804;SDS011;10062;51.052;13.756;2022-11-15T06:50:49;57.27;;;27.53;;
19804;SDS011;10062;51.052;13.756;2022-11-15T06:53:41;58.60;;;30.23;;
19804;SDS011;10062;51.052;13.756;2022-11-15T06:56:31;59.80;;;29.40;;
19804;SDS011;10062;51.052;13.756;2022-11-15T06:59:22;48.80;;;23.80;;
19804;SDS011;10062;51.052;13.756;2022-11-15T07:02:13;46.20;;;22.43;;
19804;SDS011;10062;51.052;13.756;2022-11-15T07:05:05;51.30;;;26.53;;
19804;SDS011;10062;51.052;13.756;2022-11-15T07:07:56;62.97;;;27.57;;
19804;SDS011;10062;51.052;13.756;2022-11-15T07:10:48;54.70;;;27.17;;
19804;SDS011;10062;51.052;13.756;2022-11-15T07:13:38;37.03;;;18.53;;
19804;SDS011;10062;51.052;13.756;2022-11-15T07:16:29;52.80;;;25.40;;
19804;SDS011;10062;51.052;13.756;2022-11-15T07:19:19;44.13;;;19.80;;
19804;SDS011;10062;51.052;13.756;2022-11-15T07:22:11;46.20;;;22.57;;
19804;SDS011;10062;51.052;13.756;2022-11-15T07:25:01;52.37;;;24.87;;
19804;SDS011;10062;51.052;13.756;2022-11-15T07:27:56;47.53;;;24.07;;
19804;SDS011;10062;51.052;13.756;2022-11-15T07:30:47;37.47;;;19.27;;
19804;SDS011;10062;51.052;13.756;2022-11-15T07:33:37;42.57;;;19.67;;
19804;SDS011;10062;51.052;13.756;2022-11-15T07:36:28;45.07;;;20.77;;
19804;SDS011;10062;51.052;13.756;2022-11-15T07:39:20;41.40;;;20.53;;
19804;SDS011;10062;51.052;13.756;2022-11-15T07:42:10;60.67;;;26.90;;
19804;SDS011;10062;51.052;13.756;2022-11-15T07:45:18;48.70;;;24.23;;
19804;SDS011;10062;51.052;13.756;2022-11-15T07:48:09;54.90;;;26.53;;
19804;SDS011;10062;51.052;13.756;2022-11-15T07:51:00;53.27;;;26.07;;
19804;SDS011;10062;51.052;13.756;2022-11-15T07:53:50;54.53;;;25.10;;
19804;SDS011;10062;51.052;13.756;2022-11-15T07:56:42;50.17;;;25.93;;
19804;SDS011;10062;51.052;13.756;2022-11-15T07:59:33;39.20;;;17.07;;
19804;SDS011;10062;51.052;13.756;2022-11-15T08:02:24;50.33;;;25.10;;
19804;SDS011;10062;51.052;13.756;2022-11-15T08:05:16;48.57;;;24.87;;
19804;SDS011;10062;51.052;13.756;2022-11-15T08:08:06;33.93;;;17.10;;
19804;SDS011;10062;51.052;13.756;2022-11-15T08:10:57;43.17;;;23.50;;
19804;SDS011;10062;51.052;13.756;2022-11-15T08:13:49;45.57;;;25.83;;
19804;SDS011;10062;51.052;13.756;2022-11-15T08:16:40;44.17;;;22.53;;
19804;SDS011;10062;51.052;13.756;2022-11-15T08:19:30;40.53;;;21.80;;
19804;SDS011;10062;51.052;13.756;2022-11-15T08:22:20;43.03;;;22.43;;
19804;SDS011;10062;51.052;13.756;2022-11-15T08:25:11;40.30;;;21.23;;
19804;SDS011;10062;51.052;13.756;2022-11-15T08:28:02;41.23;;;21.80;;
19804;SDS011;10062;51.052;13.756;2022-11-15T08:30:56;39.47;;;22.33;;
19804;SDS011;10062;51.052;13.756;2022-11-15T08:33:46;36.97;;;19.43;;
19804;SDS011;10062;51.052;13.756;2022-11-15T08:36:37;30.20;;;17.83;;
19804;SDS011;10062;51.052;13.756;2022-11-15T08:39:27;33.93;;;18.43;;
19804;SDS011;10062;51.052;13.756;2022-11-15T08:42:18;35.20;;;18.43;;
19804;SDS011;10062;51.052;13.756;2022-11-15T08:45:08;33.33;;;18.20;;
19804;SDS011;10062;51.052;13.756;2022-11-15T08:48:01;36.70;;;19.47;;
19804;SDS011;10062;51.052;13.756;2022-11-15T08:50:53;34.40;;;19.27;;
19804;SDS011;10062;51.052;13.756;2022-11-15T08:53:44;32.90;;;19.77;;
19804;SDS011;10062;51.052;13.756;2022-11-15T08:56:34;33.87;;;19.57;;
19804;SDS011;10062;51.052;13.756;2022-11-15T08:59:24;34.57;;;18.37;;
19804;SDS011;10062;51.052;13.756;2022-11-15T09:02:15;35.33;;;21.17;;
19804;SDS011;10062;51.052;13.756;2022-11-15T09:05:07;34.40;;;19.27;;
19804;SDS011;10062;51.052;13.756;2022-11-15T09:07:58;33.50;;;18.63;;
19804;SDS011;10062;51.052;13.756;2022-11-15T09:10:48;30.50;;;18.17;;
19804;SDS011;10062;51.052;13.756;2022-11-15T09:13:39;30.53;;;18.23;;
19804;SDS011;10062;51.052;13.756;2022-11-15T09:16:30;32.67;;;18.73;;
19804;SDS011;10062;51.052;13.756;2022-11-15T09:19:20;31.43;;;17.40;;
19804;SDS011;10062;51.052;13.756;2022-11-15T09:22:12;29.17;;;18.37;;
19804;SDS011;10062;51.052;13.756;2022-11-15T09:25:03;29.23;;;14.17;;
19804;SDS011;10062;51.052;13.756;2022-11-15T09:27:54;29.00;;;16.53;;
19804;SDS011;10062;51.052;13.756;2022-11-15T09:30:45;32.17;;;17.23;;
19804;SDS011;10062;51.052;13.756;2022-11-15T09:33:35;31.60;;;18.23;;
19804;SDS011;10062;51.052;13.756;2022-11-15T09:36:26;30.13;;;17.37;;
19804;SDS011;10062;51.052;13.756;2022-11-15T09:39:18;29.90;;;18.17;;
19804;SDS011;10062;51.052;13.756;2022-11-15T09:42:12;32.47;;;17.43;;
19804;SDS011;10062;51.052;13.756;2022-11-15T09:45:17;29.47;;;17.80;;
19804;SDS011;10062;51.052;13.756;2022-11-15T09:48:19;27.50;;;17.20;;
19804;SDS011;10062;51.052;13.756;2022-11-15T09:51:34;32.73;;;18.27;;
19804;SDS011;10062;51.052;13.756;2022-11-15T09:54:20;22.93;;;13.87;;
19804;SDS011;10062;51.052;13.756;2022-11-15T09:57:03;26.83;;;14.43;;
19804;SDS011;10062;51.052;13.756;2022-11-15T09:59:44;28.17;;;16.97;;
19804;SDS011;10062;51.052;13.756;2022-11-15T10:02:31;28.03;;;15.60;;
19804;SDS011;10062;51.052;13.756;2022-11-15T10:05:16;29.10;;;16.43;;
19804;SDS011;10062;51.052;13.756;2022-11-15T10:07:54;28.10;;;16.37;;
19804;SDS011;10062;51.052;13.756;2022-11-15T10:10:34;27.20;;;15.70;;
19804;SDS011;10062;51.052;13.756;2022-11-15T10:13:12;26.20;;;17.60;;
19804;SDS011;10062;51.052;13.756;2022-11-15T10:15:47;26.23;;;15.20;;
19804;SDS011;10062;51.052;13.756;2022-11-15T10:18:21;29.30;;;16.23;;
19804;SDS011;10062;51.052;13.756;2022-11-15T10:21:02;24.93;;;16.23;;
19804;SDS011;10062;51.052;13.756;2022-11-15T10:23:44;25.40;;;12.97;;
19804;SDS011;10062;51.052;13.756;2022-11-15T10:26:17;26.10;;;15.23;;
19804;SDS011;10062;51.052;13.756;2022-11-15T10:28:49;26.53;;;15.10;;
19804;SDS011;10062;51.052;13.756;2022-11-15T10:31:21;28.50;;;14.73;;
19804;SDS011;10062;51.052;13.756;2022-11-15T10:33:57;27.77;;;15.77;;
19804;SDS011;10062;51.052;13.756;2022-11-15T10:36:43;27.43;;;15.93;;
19804;SDS011;10062;51.052;13.756;2022-11-15T10:39:16;28.27;;;16.13;;
19804;SDS011;10062;51.052;13.756;2022-11-15T10:41:49;29.37;;;15.60;;
19804;SDS011;10062;51.052;13.756;2022-11-15T10:44:24;23.73;;;13.63;;
19804;SDS011;10062;51.052;13.756;2022-11-15T10:47:07;27.13;;;14.47;;
19804;SDS011;10062;51.052;13.756;2022-11-15T10:49:54;26.50;;;15.60;;
19804;SDS011;10062;51.052;13.756;2022-11-15T10:52:31;29.43;;;13.73;;
19804;SDS011;10062;51.052;13.756;2022-11-15T10:55:17;29.03;;;18.40;;
19804;SDS011;10062;51.052;13.756;2022-11-15T10:57:56;23.17;;;12.37;;
19804;SDS011;10062;51.052;13.756;2022-11-15T11:00:34;21.97;;;11.20;;
19804;SDS011;10062;51.052;13.756;2022-11-15T11:03:21;26.73;;;14.87;;
19804;SDS011;10062;51.052;13.756;2022-11-15T11:06:03;28.13;;;14.23;;
19804;SDS011;10062;51.052;13.756;2022-11-15T11:08:37;28.43;;;16.83;;
19804;SDS011;10062;51.052;13.756;2022-11-15T11:11:09;25.03;;;14.40;;
19804;SDS011;10062;51.052;13.756;2022-11-15T11:13:42;27.20;;;15.93;;
19804;SDS011;10062;51.052;13.756;2022-11-15T11:16:17;35.10;;;18.60;;
19804;SDS011;10062;51.052;13.756;2022-11-15T11:19:02;30.67;;;15.87;;
19804;SDS011;10062;51.052;13.756;2022-11-15T11:21:46;26.80;;;13.97;;
19804;SDS011;10062;51.052;13.756;2022-11-15T11:24:25;23.53;;;14.17;;
19804;SDS011;10062;51.052;13.756;2022-11-15T11:27:16;20.77;;;12.43;;
19804;SDS011;10062;51.052;13.756;2022-11-15T11:30:02;24.63;;;14.73;;
19804;SDS011;10062;51.052;13.756;2022-11-15T11:32:43;24.13;;;12.13;;
19804;SDS011;10062;51.052;13.756;2022-11-15T11:35:45;23.40;;;15.13;;
19804;SDS011;10062;51.052;13.756;2022-11-15T11:38:26;25.73;;;15.87;;
19804;SDS011;10062;51.052;13.756;2022-11-15T11:41:13;23.87;;;13.80;;
19804;SDS011;10062;51.052;13.756;2022-11-15T11:43:55;22.50;;;13.13;;
19804;SDS011;10062;51.052;13.756;2022-11-15T11:46:42;23.30;;;12.00;;
19804;SDS011;10062;51.052;13.756;2022-11-15T11:49:21;27.00;;;16.40;;
19804;SDS011;10062;51.052;13.756;2022-11-15T11:52:00;24.87;;;14.60;;
19804;SDS011;10062;51.052;13.756;2022-11-15T11:54:42;25.73;;;15.13;;
19804;SDS011;10062;51.052;13.756;2022-11-15T11:57:21;21.87;;;11.20;;
19804;SDS011;10062;51.052;13.756;2022-11-15T12:00:02;25.20;;;14.73;;
19804;SDS011;10062;51.052;13.756;2022-11-15T12:02:48;26.40;;;14.47;;
19804;SDS011;10062;51.052;13.756;2022-11-15T12:05:28;23.30;;;13.83;;
19804;SDS011;10062;51.052;13.756;2022-11-15T12:08:08;23.77;;;14.13;;
19804;SDS011;10062;51.052;13.756;2022-11-15T12:10:50;27.87;;;16.00;;
19804;SDS011;10062;51.052;13.756;2022-11-15T12:13:29;24.50;;;13.70;;
19804;SDS011;10062;51.052;13.756;2022-11-15T12:16:08;27.67;;;15.67;;
19804;SDS011;10062;51.052;13.756;2022-11-15T12:18:47;19.10;;;10.13;;
19804;SDS011;10062;51.052;13.756;2022-11-15T12:21:22;23.53;;;13.53;;
19804;SDS011;10062;51.052;13.756;2022-11-15T12:24:02;26.97;;;14.93;;
19804;SDS011;10062;51.052;13.756;2022-11-15T12:26:39;23.13;;;14.13;;
19804;SDS011;10062;51.052;13.756;2022-11-15T12:29:15;20.03;;;9.33;;
19804;SDS011;10062;51.052;13.756;2022-11-15T12:31:51;25.80;;;13.13;;
19804;SDS011;10062;51.052;13.756;2022-11-15T12:34:36;23.00;;;13.43;;
19804;SDS011;10062;51.052;13.756;2022-11-15T12:40:27;23.07;;;13.10;;
19804;SDS011;10062;51.052;13.756;2022-11-15T12:46:12;22.90;;;11.43;;
19804;SDS011;10062;51.052;13.756;2022-11-15T12:48:52;23.47;;;13.13;;
19804;SDS011;10062;51.052;13.756;2022-11-15T12:54:53;24.30;;;14.53;;
19804;SDS011;10062;51.052;13.756;2022-11-15T12:57:34;24.17;;;13.70;;
19804;SDS011;10062;51.052;13.756;2022-11-15T13:03:19;23.37;;;13.03;;
19804;SDS011;10062;51.052;13.756;2022-11-15T13:06:02;26.60;;;14.57;;
19804;SDS011;10062;51.052;13.756;2022-11-15T13:08:40;17.63;;;10.27;;
19804;SDS011;10062;51.052;13.756;2022-11-15T13:17:25;22.03;;;11.30;;
19804;SDS011;10062;51.052;13.756;2022-11-15T13:23:00;24.10;;;15.13;;
19804;SDS011;10062;51.052;13.756;2022-11-15T13:28:43;22.50;;;14.80;;
19804;SDS011;10062;51.052;13.756;2022-11-15T13:31:23;22.13;;;13.27;;
19804;SDS011;10062;51.052;13.756;2022-11-15T13:33:59;20.83;;;12.60;;
19804;SDS011;10062;51.052;13.756;2022-11-15T13:36:32;22.73;;;14.93;;
19804;SDS011;10062;51.052;13.756;2022-11-15T13:39:06;27.87;;;16.17;;
19804;SDS011;10062;51.052;13.756;2022-11-15T13:41:45;23.00;;;13.93;;
19804;SDS011;10062;51.052;13.756;2022-11-15T13:44:22;20.87;;;10.93;;
19804;SDS011;10062;51.052;13.756;2022-11-15T13:47:04;26.33;;;14.10;;
19804;SDS011;10062;51.052;13.756;2022-11-15T13:49:37;23.10;;;12.60;;
19804;SDS011;10062;51.052;13.756;2022-11-15T13:52:10;24.00;;;14.00;;
19804;SDS011;10062;51.052;13.756;2022-11-15T13:54:45;23.57;;;12.77;;
19804;SDS011;10062;51.052;13.756;2022-11-15T13:57:20;21.90;;;13.47;;
19804;SDS011;10062;51.052;13.756;2022-11-15T13:59:56;24.90;;;14.00;;
19804;SDS011;10062;51.052;13.756;2022-11-15T14:02:31;24.30;;;12.80;;
19804;SDS011;10062;51.052;13.756;2022-11-15T14:05:12;27.20;;;15.33;;
19804;SDS011;10062;51.052;13.756;2022-11-15T14:07:52;23.50;;;14.07;;
19804;SDS011;10062;51.052;13.756;2022-11-15T14:10:26;26.73;;;15.33;;
19804;SDS011;10062;51.052;13.756;2022-11-15T14:13:01;29.57;;;15.67;;
19804;SDS011;10062;51.052;13.756;2022-11-15T14:15:36;25.17;;;13.37;;
19804;SDS011;10062;51.052;13.756;2022-11-15T14:21:12;32.50;;;16.70;;
19804;SDS011;10062;51.052;13.756;2022-11-15T14:23:45;24.47;;;13.30;;
19804;SDS011;10062;51.052;13.756;2022-11-15T14:26:26;29.57;;;14.90;;
19804;SDS011;10062;51.052;13.756;2022-11-15T14:32:05;30.87;;;17.33;;
19804;SDS011;10062;51.052;13.756;2022-11-15T14:34:44;25.57;;;13.77;;
19804;SDS011;10062;51.052;13.756;2022-11-15T14:37:18;30.27;;;15.93;;
19804;SDS011;10062;51.052;13.756;2022-11-15T14:39:52;28.13;;;15.50;;
19804;SDS011;10062;51.052;13.756;2022-11-15T14:42:25;26.63;;;14.83;;
19804;SDS011;10062;51.052;13.756;2022-11-15T14:44:57;31.33;;;16.13;;
19804;SDS011;10062;51.052;13.756;2022-11-15T14:47:30;30.93;;;16.17;;
19804;SDS011;10062;51.052;13.756;2022-11-15T14:50:02;23.67;;;13.17;;
19804;SDS011;10062;51.052;13.756;2022-11-15T14:52:35;28.00;;;13.90;;
19804;SDS011;10062;51.052;13.756;2022-11-15T14:55:11;28.67;;;15.73;;
19804;SDS011;10062;51.052;13.756;2022-11-15T14:57:48;32.60;;;16.57;;
19804;SDS011;10062;51.052;13.756;2022-11-15T15:00:20;31.00;;;15.33;;
19804;SDS011;10062;51.052;13.756;2022-11-15T15:02:54;29.40;;;13.77;;
19804;SDS011;10062;51.052;13.756;2022-11-15T15:05:29;23.63;;;11.90;;
19804;SDS011;10062;51.052;13.756;2022-11-15T15:08:03;28.57;;;15.43;;
19804;SDS011;10062;51.052;13.756;2022-11-15T15:10:36;33.57;;;17.03;;
19804;SDS011;10062;51.052;13.756;2022-11-15T15:13:15;22.70;;;11.20;;
19804;SDS011;10062;51.052;13.756;2022-11-15T15:15:48;35.73;;;16.57;;
19804;SDS011;10062;51.052;13.756;2022-11-15T15:18:22;24.70;;;12.03;;
19804;SDS011;10062;51.052;13.756;2022-11-15T15:20:55;30.47;;;17.30;;
19804;SDS011;10062;51.052;13.756;2022-11-15T15:23:29;29.70;;;16.47;;
19804;SDS011;10062;51.052;13.756;2022-11-15T15:26:01;35.57;;;16.73;;
19804;SDS011;10062;51.052;13.756;2022-11-15T15:28:33;23.17;;;12.30;;
19804;SDS011;10062;51.052;13.756;2022-11-15T15:31:05;32.13;;;16.87;;
19804;SDS011;10062;51.052;13.756;2022-11-15T15:33:38;32.47;;;16.70;;
19804;SDS011;10062;51.052;13.756;2022-11-15T15:36:10;29.63;;;15.60;;
19804;SDS011;10062;51.052;13.756;2022-11-15T15:38:43;25.03;;;11.37;;
19804;SDS011;10062;51.052;13.756;2022-11-15T15:41:16;29.37;;;14.17;;
19804;SDS011;10062;51.052;13.756;2022-11-15T15:43:48;28.93;;;15.57;;
19804;SDS011;10062;51.052;13.756;2022-11-15T15:46:20;32.77;;;16.10;;
19804;SDS011;10062;51.052;13.756;2022-11-15T15:48:53;28.07;;;14.90;;
19804;SDS011;10062;51.052;13.756;2022-11-15T15:51:25;32.13;;;16.17;;
19804;SDS011;10062;51.052;13.756;2022-11-15T15:53:57;32.73;;;17.20;;
19804;SDS011;10062;51.052;13.756;2022-11-15T15:56:29;32.17;;;16.20;;
19804;SDS011;10062;51.052;13.756;2022-11-15T15:59:00;34.97;;;17.67;;
19804;SDS011;10062;51.052;13.756;2022-11-15T16:01:32;36.67;;;18.53;;
19804;SDS011;10062;51.052;13.756;2022-11-15T16:04:05;32.67;;;17.33;;
19804;SDS011;10062;51.052;13.756;2022-11-15T16:06:37;37.00;;;16.67;;
19804;SDS011;10062;51.052;13.756;2022-11-15T16:09:14;32.73;;;16.57;;
19804;SDS011;10062;51.052;13.756;2022-11-15T16:11:47;34.17;;;17.17;;
19804;SDS011;10062;51.052;13.756;2022-11-15T16:14:19;34.17;;;17.53;;
19804;SDS011;10062;51.052;13.756;2022-11-15T16:16:51;32.27;;;15.93;;
19804;SDS011;10062;51.052;13.756;2022-11-15T16:19:24;31.90;;;15.93;;
19804;SDS011;10062;51.052;13.756;2022-11-15T16:21:56;35.63;;;18.27;;
19804;SDS011;10062;51.052;13.756;2022-11-15T16:24:27;35.23;;;15.97;;
19804;SDS011;10062;51.052;13.756;2022-11-15T16:26:59;34.17;;;17.47;;
19804;SDS011;10062;51.052;13.756;2022-11-15T16:29:31;28.23;;;15.20;;
19804;SDS011;10062;51.052;13.756;2022-11-15T16:32:03;32.23;;;16.07;;